sensor_id;sensor_type;location;lat;lon;timestamp;P1;durP1;ratioP1;P2;durP2;ratioP2
28431;SDS011;15664;51.302;7.744;2022-10-31T00:01:42;16.77;;;5.00;;
28431;SDS011;15664;51.302;7.744;2022-10-31T00:04:09;13.63;;;4.75;;
28431;SDS011;15664;51.302;7.744;2022-10-31T00:06:34;13.10;;;5.07;;
28431;SDS011;15664;51.302;7.744;2022-10-31T00:09:00;12.80;;;4.57;;
28431;SDS011;15664;51.302;7.744;2022-10-31T00:11:28;12.40;;;5.53;;
28431;SDS011;15664;51.302;7.744;2022-10-31T00:13:53;12.57;;;4.87;;
28431;SDS011;15664;51.302;7.744;2022-10-31T00:16:20;16.30;;;5.07;;
28431;SDS011;15664;51.302;7.744;2022-10-31T00:18:54;11.90;;;4.65;;
28431;SDS011;15664;51.302;7.744;2022-10-31T00:21:21;15.00;;;4.70;;
28431;SDS011;15664;51.302;7.744;2022-10-31T00:23:48;11.27;;;4.50;;
28431;SDS011;15664;51.302;7.744;2022-10-31T00:26:13;14.10;;;5.07;;
28431;SDS011;15664;51.302;7.744;2022-10-31T00:28:38;15.20;;;5.10;;
28431;SDS011;15664;51.302;7.744;2022-10-31T00:31:04;12.27;;;4.30;;
28431;SDS011;15664;51.302;7.744;2022-10-31T00:33:33;11.60;;;4.65;;
28431;SDS011;15664;51.302;7.744;2022-10-31T00:35:59;15.80;;;5.38;;
28431;SDS011;15664;51.302;7.744;2022-10-31T00:38:25;17.70;;;4.90;;
28431;SDS011;15664;51.302;7.744;2022-10-31T00:40:50;16.13;;;5.17;;
28431;SDS011;15664;51.302;7.744;2022-10-31T00:43:16;19.47;;;6.47;;
28431;SDS011;15664;51.302;7.744;2022-10-31T00:45:41;16.73;;;4.95;;
28431;SDS011;15664;51.302;7.744;2022-10-31T00:48:08;14.07;;;5.40;;
28431;SDS011;15664;51.302;7.744;2022-10-31T00:50:33;14.55;;;4.90;;
28431;SDS011;15664;51.302;7.744;2022-10-31T00:52:59;15.87;;;5.00;;
28431;SDS011;15664;51.302;7.744;2022-10-31T00:55:24;18.25;;;5.55;;
28431;SDS011;15664;51.302;7.744;2022-10-31T00:57:50;15.00;;;5.07;;
28431;SDS011;15664;51.302;7.744;2022-10-31T01:00:16;13.73;;;5.72;;
28431;SDS011;15664;51.302;7.744;2022-10-31T01:02:42;15.60;;;5.70;;
28431;SDS011;15664;51.302;7.744;2022-10-31T01:05:07;15.97;;;5.33;;
28431;SDS011;15664;51.302;7.744;2022-10-31T01:07:35;16.37;;;5.50;;
28431;SDS011;15664;51.302;7.744;2022-10-31T01:10:02;13.25;;;5.68;;
28431;SDS011;15664;51.302;7.744;2022-10-31T01:12:27;15.45;;;5.43;;
28431;SDS011;15664;51.302;7.744;2022-10-31T01:14:53;18.30;;;5.97;;
28431;SDS011;15664;51.302;7.744;2022-10-31T01:17:18;15.63;;;5.70;;
28431;SDS011;15664;51.302;7.744;2022-10-31T01:19:45;15.60;;;5.97;;
28431;SDS011;15664;51.302;7.744;2022-10-31T01:22:10;16.80;;;6.70;;
28431;SDS011;15664;51.302;7.744;2022-10-31T01:24:36;22.57;;;6.67;;
28431;SDS011;15664;51.302;7.744;2022-10-31T01:27:01;17.30;;;6.87;;
28431;SDS011;15664;51.302;7.744;2022-10-31T01:29:31;17.35;;;6.90;;
28431;SDS011;15664;51.302;7.744;2022-10-31T01:31:57;22.48;;;7.60;;
28431;SDS011;15664;51.302;7.744;2022-10-31T01:34:22;18.50;;;7.33;;
28431;SDS011;15664;51.302;7.744;2022-10-31T01:36:48;17.70;;;7.00;;
28431;SDS011;15664;51.302;7.744;2022-10-31T01:39:16;19.08;;;7.65;;
28431;SDS011;15664;51.302;7.744;2022-10-31T01:41:45;19.17;;;7.07;;
28431;SDS011;15664;51.302;7.744;2022-10-31T01:46:56;19.17;;;7.37;;
28431;SDS011;15664;51.302;7.744;2022-10-31T01:49:28;20.42;;;7.70;;
28431;SDS011;15664;51.302;7.744;2022-10-31T01:52:22;18.10;;;7.22;;
28431;SDS011;15664;51.302;7.744;2022-10-31T01:54:55;21.00;;;7.55;;
28431;SDS011;15664;51.302;7.744;2022-10-31T01:57:25;26.23;;;7.73;;
28431;SDS011;15664;51.302;7.744;2022-10-31T01:59:53;21.23;;;7.50;;
28431;SDS011;15664;51.302;7.744;2022-10-31T02:02:22;18.65;;;7.10;;
28431;SDS011;15664;51.302;7.744;2022-10-31T02:04:50;19.63;;;6.82;;
28431;SDS011;15664;51.302;7.744;2022-10-31T02:07:18;16.63;;;6.82;;
28431;SDS011;15664;51.302;7.744;2022-10-31T02:09:50;18.43;;;6.70;;
28431;SDS011;15664;51.302;7.744;2022-10-31T02:12:18;14.32;;;6.10;;
28431;SDS011;15664;51.302;7.744;2022-10-31T02:14:44;18.63;;;6.80;;
28431;SDS011;15664;51.302;7.744;2022-10-31T02:17:09;14.43;;;6.03;;
28431;SDS011;15664;51.302;7.744;2022-10-31T02:19:52;15.88;;;6.25;;
28431;SDS011;15664;51.302;7.744;2022-10-31T02:22:26;18.23;;;6.10;;
28431;SDS011;15664;51.302;7.744;2022-10-31T02:33:52;18.83;;;7.57;;
28431;SDS011;15664;51.302;7.744;2022-10-31T02:36:24;18.03;;;8.00;;
28431;SDS011;15664;51.302;7.744;2022-10-31T02:39:01;19.40;;;7.20;;
28431;SDS011;15664;51.302;7.744;2022-10-31T02:41:44;17.65;;;6.75;;
28431;SDS011;15664;51.302;7.744;2022-10-31T02:46:54;21.17;;;7.53;;
28431;SDS011;15664;51.302;7.744;2022-10-31T02:52:16;19.05;;;7.85;;
28431;SDS011;15664;51.302;7.744;2022-10-31T02:54:43;17.48;;;6.15;;
28431;SDS011;15664;51.302;7.744;2022-10-31T02:57:10;14.88;;;6.25;;
28431;SDS011;15664;51.302;7.744;2022-10-31T02:59:36;15.67;;;6.43;;
28431;SDS011;15664;51.302;7.744;2022-10-31T03:02:26;17.98;;;6.45;;
28431;SDS011;15664;51.302;7.744;2022-10-31T03:10:13;17.33;;;7.28;;
28431;SDS011;15664;51.302;7.744;2022-10-31T03:15:43;19.85;;;7.20;;
28431;SDS011;15664;51.302;7.744;2022-10-31T03:18:13;17.15;;;6.90;;
28431;SDS011;15664;51.302;7.744;2022-10-31T03:21:01;17.77;;;6.43;;
28431;SDS011;15664;51.302;7.744;2022-10-31T03:23:34;16.35;;;5.47;;
28431;SDS011;15664;51.302;7.744;2022-10-31T03:26:02;16.58;;;6.03;;
28431;SDS011;15664;51.302;7.744;2022-10-31T03:28:37;15.82;;;6.15;;
28431;SDS011;15664;51.302;7.744;2022-10-31T03:31:08;15.85;;;6.18;;
28431;SDS011;15664;51.302;7.744;2022-10-31T03:33:38;14.23;;;6.03;;
28431;SDS011;15664;51.302;7.744;2022-10-31T03:36:08;16.85;;;5.90;;
28431;SDS011;15664;51.302;7.744;2022-10-31T03:38:37;15.43;;;6.78;;
28431;SDS011;15664;51.302;7.744;2022-10-31T03:41:05;21.85;;;7.03;;
28431;SDS011;15664;51.302;7.744;2022-10-31T03:43:36;14.63;;;6.32;;
28431;SDS011;15664;51.302;7.744;2022-10-31T03:46:07;19.03;;;6.00;;
28431;SDS011;15664;51.302;7.744;2022-10-31T03:48:33;21.35;;;7.32;;
28431;SDS011;15664;51.302;7.744;2022-10-31T03:53:56;17.23;;;6.47;;
28431;SDS011;15664;51.302;7.744;2022-10-31T03:56:29;16.38;;;5.95;;
28431;SDS011;15664;51.302;7.744;2022-10-31T03:59:22;15.15;;;6.28;;
28431;SDS011;15664;51.302;7.744;2022-10-31T04:01:47;17.08;;;6.78;;
28431;SDS011;15664;51.302;7.744;2022-10-31T04:04:17;20.42;;;7.25;;
28431;SDS011;15664;51.302;7.744;2022-10-31T04:06:44;22.23;;;6.77;;
28431;SDS011;15664;51.302;7.744;2022-10-31T04:09:12;16.02;;;6.72;;
28431;SDS011;15664;51.302;7.744;2022-10-31T04:11:44;19.67;;;6.70;;
28431;SDS011;15664;51.302;7.744;2022-10-31T04:14:33;17.58;;;7.10;;
28431;SDS011;15664;51.302;7.744;2022-10-31T04:17:02;19.15;;;7.03;;
28431;SDS011;15664;51.302;7.744;2022-10-31T04:19:34;21.50;;;7.93;;
28431;SDS011;15664;51.302;7.744;2022-10-31T04:22:00;24.35;;;8.27;;
28431;SDS011;15664;51.302;7.744;2022-10-31T04:24:26;22.00;;;7.90;;
28431;SDS011;15664;51.302;7.744;2022-10-31T04:26:51;20.53;;;7.33;;
28431;SDS011;15664;51.302;7.744;2022-10-31T04:29:18;17.73;;;7.10;;
28431;SDS011;15664;51.302;7.744;2022-10-31T04:31:43;18.10;;;7.00;;
28431;SDS011;15664;51.302;7.744;2022-10-31T04:34:09;19.53;;;6.97;;
28431;SDS011;15664;51.302;7.744;2022-10-31T04:36:34;23.85;;;7.55;;
28431;SDS011;15664;51.302;7.744;2022-10-31T04:38:59;19.47;;;7.37;;
28431;SDS011;15664;51.302;7.744;2022-10-31T04:41:36;17.83;;;7.20;;
28431;SDS011;15664;51.302;7.744;2022-10-31T04:44:04;19.77;;;7.93;;
28431;SDS011;15664;51.302;7.744;2022-10-31T04:46:29;23.40;;;8.23;;
28431;SDS011;15664;51.302;7.744;2022-10-31T04:48:56;25.38;;;8.73;;
28431;SDS011;15664;51.302;7.744;2022-10-31T04:51:22;20.45;;;8.73;;
28431;SDS011;15664;51.302;7.744;2022-10-31T04:53:48;22.33;;;8.43;;
28431;SDS011;15664;51.302;7.744;2022-10-31T04:56:32;21.77;;;7.93;;
28431;SDS011;15664;51.302;7.744;2022-10-31T04:59:00;22.00;;;8.23;;
28431;SDS011;15664;51.302;7.744;2022-10-31T05:01:30;21.67;;;8.65;;
28431;SDS011;15664;51.302;7.744;2022-10-31T05:03:58;22.05;;;8.63;;
28431;SDS011;15664;51.302;7.744;2022-10-31T05:06:23;23.20;;;8.77;;
28431;SDS011;15664;51.302;7.744;2022-10-31T05:08:49;23.60;;;8.83;;
28431;SDS011;15664;51.302;7.744;2022-10-31T05:11:14;28.57;;;9.70;;
28431;SDS011;15664;51.302;7.744;2022-10-31T05:13:41;22.90;;;8.85;;
28431;SDS011;15664;51.302;7.744;2022-10-31T05:16:29;21.00;;;8.60;;
28431;SDS011;15664;51.302;7.744;2022-10-31T05:19:27;24.17;;;8.98;;
28431;SDS011;15664;51.302;7.744;2022-10-31T05:22:11;21.50;;;8.60;;
28431;SDS011;15664;51.302;7.744;2022-10-31T05:24:36;26.35;;;9.00;;
28431;SDS011;15664;51.302;7.744;2022-10-31T05:27:01;25.20;;;8.60;;
28431;SDS011;15664;51.302;7.744;2022-10-31T05:29:27;20.83;;;8.27;;
28431;SDS011;15664;51.302;7.744;2022-10-31T05:31:52;24.70;;;8.03;;
28431;SDS011;15664;51.302;7.744;2022-10-31T05:34:38;23.35;;;9.05;;
28431;SDS011;15664;51.302;7.744;2022-10-31T05:37:38;22.90;;;8.20;;
28431;SDS011;15664;51.302;7.744;2022-10-31T05:40:04;23.50;;;10.27;;
28431;SDS011;15664;51.302;7.744;2022-10-31T05:42:31;30.88;;;12.15;;
28431;SDS011;15664;51.302;7.744;2022-10-31T05:44:57;31.52;;;11.30;;
28431;SDS011;15664;51.302;7.744;2022-10-31T05:47:38;22.17;;;9.77;;
28431;SDS011;15664;51.302;7.744;2022-10-31T05:50:23;31.73;;;11.05;;
28431;SDS011;15664;51.302;7.744;2022-10-31T05:53:04;26.15;;;10.63;;
28431;SDS011;15664;51.302;7.744;2022-10-31T05:55:34;29.00;;;11.60;;
28431;SDS011;15664;51.302;7.744;2022-10-31T05:58:08;31.42;;;10.45;;
28431;SDS011;15664;51.302;7.744;2022-10-31T06:00:36;30.33;;;10.77;;
28431;SDS011;15664;51.302;7.744;2022-10-31T06:03:06;34.28;;;11.68;;
28431;SDS011;15664;51.302;7.744;2022-10-31T06:05:41;46.63;;;14.73;;
28431;SDS011;15664;51.302;7.744;2022-10-31T06:08:06;48.37;;;17.40;;
28431;SDS011;15664;51.302;7.744;2022-10-31T06:10:33;41.15;;;15.07;;
28431;SDS011;15664;51.302;7.744;2022-10-31T06:12:58;51.77;;;17.70;;
28431;SDS011;15664;51.302;7.744;2022-10-31T06:15:32;42.22;;;15.27;;
28431;SDS011;15664;51.302;7.744;2022-10-31T06:17:59;48.80;;;17.23;;
28431;SDS011;15664;51.302;7.744;2022-10-31T06:20:26;48.03;;;16.45;;
28431;SDS011;15664;51.302;7.744;2022-10-31T06:23:00;54.72;;;16.58;;
28431;SDS011;15664;51.302;7.744;2022-10-31T06:25:25;49.60;;;16.70;;
28431;SDS011;15664;51.302;7.744;2022-10-31T06:27:51;49.78;;;16.02;;
28431;SDS011;15664;51.302;7.744;2022-10-31T06:30:19;60.40;;;17.60;;
28431;SDS011;15664;51.302;7.744;2022-10-31T06:32:45;60.08;;;18.75;;
28431;SDS011;15664;51.302;7.744;2022-10-31T06:35:10;58.33;;;17.20;;
28431;SDS011;15664;51.302;7.744;2022-10-31T06:37:36;48.83;;;15.07;;
28431;SDS011;15664;51.302;7.744;2022-10-31T06:40:14;45.28;;;14.88;;
28431;SDS011;15664;51.302;7.744;2022-10-31T06:43:00;52.67;;;15.90;;
28431;SDS011;15664;51.302;7.744;2022-10-31T06:45:26;51.60;;;15.80;;
28431;SDS011;15664;51.302;7.744;2022-10-31T06:48:11;56.15;;;15.55;;
28431;SDS011;15664;51.302;7.744;2022-10-31T06:50:44;48.38;;;15.25;;
28431;SDS011;15664;51.302;7.744;2022-10-31T06:53:12;41.30;;;14.63;;
28431;SDS011;15664;51.302;7.744;2022-10-31T06:55:39;42.67;;;13.77;;
28431;SDS011;15664;51.302;7.744;2022-10-31T06:58:06;43.20;;;14.60;;
28431;SDS011;15664;51.302;7.744;2022-10-31T07:00:33;38.13;;;12.43;;
28431;SDS011;15664;51.302;7.744;2022-10-31T07:03:05;36.22;;;12.43;;
28431;SDS011;15664;51.302;7.744;2022-10-31T07:05:33;35.50;;;11.02;;
28431;SDS011;15664;51.302;7.744;2022-10-31T07:07:59;23.63;;;8.93;;
28431;SDS011;15664;51.302;7.744;2022-10-31T07:10:27;28.33;;;9.45;;
28431;SDS011;15664;51.302;7.744;2022-10-31T07:12:59;32.77;;;10.27;;
28431;SDS011;15664;51.302;7.744;2022-10-31T07:15:36;22.90;;;9.10;;
28431;SDS011;15664;51.302;7.744;2022-10-31T07:18:03;27.08;;;10.27;;
28431;SDS011;15664;51.302;7.744;2022-10-31T07:20:31;26.95;;;9.45;;
28431;SDS011;15664;51.302;7.744;2022-10-31T07:22:57;26.30;;;10.00;;
28431;SDS011;15664;51.302;7.744;2022-10-31T07:25:23;24.33;;;9.52;;
28431;SDS011;15664;51.302;7.744;2022-10-31T07:28:09;31.65;;;10.48;;
28431;SDS011;15664;51.302;7.744;2022-10-31T07:30:35;39.97;;;12.50;;
28431;SDS011;15664;51.302;7.744;2022-10-31T07:33:01;29.38;;;10.90;;
28431;SDS011;15664;51.302;7.744;2022-10-31T07:35:46;27.15;;;10.63;;
28431;SDS011;15664;51.302;7.744;2022-10-31T07:38:14;27.52;;;9.75;;
28431;SDS011;15664;51.302;7.744;2022-10-31T07:40:40;27.40;;;9.70;;
28431;SDS011;15664;51.302;7.744;2022-10-31T07:43:07;23.45;;;9.15;;
28431;SDS011;15664;51.302;7.744;2022-10-31T07:45:53;25.00;;;8.77;;
28431;SDS011;15664;51.302;7.744;2022-10-31T07:48:39;25.65;;;9.43;;
28431;SDS011;15664;51.302;7.744;2022-10-31T07:51:23;25.25;;;9.18;;
28431;SDS011;15664;51.302;7.744;2022-10-31T07:54:07;21.17;;;8.70;;
28431;SDS011;15664;51.302;7.744;2022-10-31T07:56:33;25.30;;;9.48;;
28431;SDS011;15664;51.302;7.744;2022-10-31T07:58:58;27.58;;;10.88;;
28431;SDS011;15664;51.302;7.744;2022-10-31T08:01:24;34.07;;;11.50;;
28431;SDS011;15664;51.302;7.744;2022-10-31T08:04:09;29.67;;;11.20;;
28431;SDS011;15664;51.302;7.744;2022-10-31T08:07:04;28.25;;;10.88;;
28431;SDS011;15664;51.302;7.744;2022-10-31T08:09:33;24.07;;;9.23;;
28431;SDS011;15664;51.302;7.744;2022-10-31T08:12:03;24.77;;;9.57;;
28431;SDS011;15664;51.302;7.744;2022-10-31T08:14:30;23.63;;;8.52;;
28431;SDS011;15664;51.302;7.744;2022-10-31T08:16:56;21.58;;;9.07;;
28431;SDS011;15664;51.302;7.744;2022-10-31T08:19:24;22.80;;;8.97;;
28431;SDS011;15664;51.302;7.744;2022-10-31T08:21:50;24.48;;;10.10;;
28431;SDS011;15664;51.302;7.744;2022-10-31T08:24:16;23.67;;;10.07;;
28431;SDS011;15664;51.302;7.744;2022-10-31T08:26:41;27.93;;;9.60;;
28431;SDS011;15664;51.302;7.744;2022-10-31T08:29:09;24.08;;;8.63;;
28431;SDS011;15664;51.302;7.744;2022-10-31T08:31:36;23.33;;;8.57;;
28431;SDS011;15664;51.302;7.744;2022-10-31T08:34:20;22.55;;;9.02;;
28431;SDS011;15664;51.302;7.744;2022-10-31T08:37:05;25.40;;;8.57;;
28431;SDS011;15664;51.302;7.744;2022-10-31T08:39:52;24.10;;;8.23;;
28431;SDS011;15664;51.302;7.744;2022-10-31T08:42:19;24.58;;;8.88;;
28431;SDS011;15664;51.302;7.744;2022-10-31T08:44:45;20.33;;;8.60;;
28431;SDS011;15664;51.302;7.744;2022-10-31T08:47:11;23.05;;;9.07;;
28431;SDS011;15664;51.302;7.744;2022-10-31T08:49:37;23.50;;;8.60;;
28431;SDS011;15664;51.302;7.744;2022-10-31T08:52:02;26.23;;;8.10;;
28431;SDS011;15664;51.302;7.744;2022-10-31T08:54:32;19.17;;;8.38;;
28431;SDS011;15664;51.302;7.744;2022-10-31T08:57:23;21.05;;;7.85;;
28431;SDS011;15664;51.302;7.744;2022-10-31T08:59:48;21.63;;;8.43;;
28431;SDS011;15664;51.302;7.744;2022-10-31T09:02:45;22.17;;;7.82;;
28431;SDS011;15664;51.302;7.744;2022-10-31T09:05:12;16.85;;;7.53;;
28431;SDS011;15664;51.302;7.744;2022-10-31T09:07:37;21.67;;;8.30;;
28431;SDS011;15664;51.302;7.744;2022-10-31T09:12:34;17.90;;;7.55;;
28431;SDS011;15664;51.302;7.744;2022-10-31T09:15:18;18.20;;;8.00;;
28431;SDS011;15664;51.302;7.744;2022-10-31T09:17:55;17.87;;;6.13;;
28431;SDS011;15664;51.302;7.744;2022-10-31T09:20:41;16.42;;;6.80;;
28431;SDS011;15664;51.302;7.744;2022-10-31T09:23:09;14.88;;;6.03;;
28431;SDS011;15664;51.302;7.744;2022-10-31T09:25:37;19.15;;;6.63;;
28431;SDS011;15664;51.302;7.744;2022-10-31T09:28:23;19.58;;;6.50;;
28431;SDS011;15664;51.302;7.744;2022-10-31T09:30:50;16.23;;;5.77;;
28431;SDS011;15664;51.302;7.744;2022-10-31T09:33:35;13.20;;;6.22;;
28431;SDS011;15664;51.302;7.744;2022-10-31T09:36:22;15.55;;;6.10;;
28431;SDS011;15664;51.302;7.744;2022-10-31T09:38:47;17.07;;;6.10;;
28431;SDS011;15664;51.302;7.744;2022-10-31T09:41:16;14.83;;;6.03;;
28431;SDS011;15664;51.302;7.744;2022-10-31T09:52:03;14.65;;;5.53;;
28431;SDS011;15664;51.302;7.744;2022-10-31T09:54:49;13.87;;;5.23;;
28431;SDS011;15664;51.302;7.744;2022-10-31T09:57:23;14.10;;;5.25;;
28431;SDS011;15664;51.302;7.744;2022-10-31T09:59:53;18.05;;;6.20;;
28431;SDS011;15664;51.302;7.744;2022-10-31T10:02:26;15.82;;;5.93;;
28431;SDS011;15664;51.302;7.744;2022-10-31T10:05:08;14.27;;;6.05;;
28431;SDS011;15664;51.302;7.744;2022-10-31T10:17:00;16.80;;;5.50;;
28431;SDS011;15664;51.302;7.744;2022-10-31T10:22:21;15.00;;;6.60;;
28431;SDS011;15664;51.302;7.744;2022-10-31T10:33:27;16.83;;;6.55;;
28431;SDS011;15664;51.302;7.744;2022-10-31T10:41:16;19.35;;;6.95;;
28431;SDS011;15664;51.302;7.744;2022-10-31T10:43:43;21.90;;;7.15;;
28431;SDS011;15664;51.302;7.744;2022-10-31T10:49:26;19.50;;;7.50;;
28431;SDS011;15664;51.302;7.744;2022-10-31T10:52:02;15.82;;;7.03;;
28431;SDS011;15664;51.302;7.744;2022-10-31T10:54:53;18.50;;;7.17;;
28431;SDS011;15664;51.302;7.744;2022-10-31T11:00:17;23.40;;;7.47;;
28431;SDS011;15664;51.302;7.744;2022-10-31T11:02:50;17.63;;;6.95;;
28431;SDS011;15664;51.302;7.744;2022-10-31T11:07:45;16.55;;;6.53;;
28431;SDS011;15664;51.302;7.744;2022-10-31T11:10:14;15.80;;;6.45;;
28431;SDS011;15664;51.302;7.744;2022-10-31T11:12:41;17.52;;;6.80;;
28431;SDS011;15664;51.302;7.744;2022-10-31T11:15:19;16.77;;;6.40;;
28431;SDS011;15664;51.302;7.744;2022-10-31T11:17:48;16.52;;;7.07;;
28431;SDS011;15664;51.302;7.744;2022-10-31T11:22:41;18.83;;;6.63;;
28431;SDS011;15664;51.302;7.744;2022-10-31T11:27:46;23.00;;;7.68;;
28431;SDS011;15664;51.302;7.744;2022-10-31T11:30:13;15.65;;;6.88;;
28431;SDS011;15664;51.302;7.744;2022-10-31T11:32:48;20.63;;;7.57;;
28431;SDS011;15664;51.302;7.744;2022-10-31T11:35:17;17.17;;;6.43;;
28431;SDS011;15664;51.302;7.744;2022-10-31T11:37:45;16.15;;;7.20;;
28431;SDS011;15664;51.302;7.744;2022-10-31T11:40:20;18.93;;;7.07;;
28431;SDS011;15664;51.302;7.744;2022-10-31T11:42:47;18.55;;;6.55;;
28431;SDS011;15664;51.302;7.744;2022-10-31T11:45:19;19.40;;;7.20;;
28431;SDS011;15664;51.302;7.744;2022-10-31T11:47:52;15.95;;;6.15;;
28431;SDS011;15664;51.302;7.744;2022-10-31T11:50:24;16.33;;;7.13;;
28431;SDS011;15664;51.302;7.744;2022-10-31T11:52:52;19.50;;;6.57;;
28431;SDS011;15664;51.302;7.744;2022-10-31T11:55:29;17.05;;;7.03;;
28431;SDS011;15664;51.302;7.744;2022-10-31T11:58:00;17.07;;;7.13;;
28431;SDS011;15664;51.302;7.744;2022-10-31T12:00:33;18.20;;;7.10;;
28431;SDS011;15664;51.302;7.744;2022-10-31T12:06:18;16.30;;;6.50;;
28431;SDS011;15664;51.302;7.744;2022-10-31T12:08:48;16.80;;;7.15;;
28431;SDS011;15664;51.302;7.744;2022-10-31T12:11:24;15.23;;;6.23;;
28431;SDS011;15664;51.302;7.744;2022-10-31T12:14:12;17.65;;;7.05;;
28431;SDS011;15664;51.302;7.744;2022-10-31T12:16:59;15.57;;;5.75;;
28431;SDS011;15664;51.302;7.744;2022-10-31T12:20:02;18.80;;;6.82;;
28431;SDS011;15664;51.302;7.744;2022-10-31T12:25:31;14.90;;;6.47;;
28431;SDS011;15664;51.302;7.744;2022-10-31T12:31:17;13.55;;;6.03;;
28431;SDS011;15664;51.302;7.744;2022-10-31T12:39:31;19.07;;;6.30;;
28431;SDS011;15664;51.302;7.744;2022-10-31T12:42:19;16.60;;;6.00;;
28431;SDS011;15664;51.302;7.744;2022-10-31T12:56:29;20.80;;;6.65;;
28431;SDS011;15664;51.302;7.744;2022-10-31T12:59:09;20.77;;;6.80;;
28431;SDS011;15664;51.302;7.744;2022-10-31T13:01:47;11.48;;;5.65;;
28431;SDS011;15664;51.302;7.744;2022-10-31T13:04:21;17.80;;;5.97;;
28431;SDS011;15664;51.302;7.744;2022-10-31T13:07:00;15.93;;;6.03;;
28431;SDS011;15664;51.302;7.744;2022-10-31T13:09:42;19.35;;;6.00;;
28431;SDS011;15664;51.302;7.744;2022-10-31T13:12:18;16.23;;;6.15;;
28431;SDS011;15664;51.302;7.744;2022-10-31T13:15:32;16.17;;;5.68;;
28431;SDS011;15664;51.302;7.744;2022-10-31T13:17:52;13.27;;;5.70;;
28431;SDS011;15664;51.302;7.744;2022-10-31T13:20:28;12.60;;;5.20;;
28431;SDS011;15664;51.302;7.744;2022-10-31T13:23:03;13.73;;;5.35;;
28431;SDS011;15664;51.302;7.744;2022-10-31T13:25:38;16.60;;;5.38;;
28431;SDS011;15664;51.302;7.744;2022-10-31T13:30:54;16.45;;;5.72;;
28431;SDS011;15664;51.302;7.744;2022-10-31T13:33:21;14.30;;;6.20;;
28431;SDS011;15664;51.302;7.744;2022-10-31T13:38:33;15.10;;;5.43;;
28431;SDS011;15664;51.302;7.744;2022-10-31T13:46:24;12.43;;;5.22;;
28431;SDS011;15664;51.302;7.744;2022-10-31T13:48:55;14.50;;;5.32;;
28431;SDS011;15664;51.302;7.744;2022-10-31T13:51:25;15.23;;;5.63;;
28431;SDS011;15664;51.302;7.744;2022-10-31T13:56:21;14.67;;;5.20;;
28431;SDS011;15664;51.302;7.744;2022-10-31T14:01:49;13.30;;;5.05;;
28431;SDS011;15664;51.302;7.744;2022-10-31T14:04:22;16.77;;;6.10;;
28431;SDS011;15664;51.302;7.744;2022-10-31T14:09:26;14.63;;;5.32;;
28431;SDS011;15664;51.302;7.744;2022-10-31T14:12:01;15.67;;;5.83;;
28431;SDS011;15664;51.302;7.744;2022-10-31T14:14:42;15.77;;;6.03;;
28431;SDS011;15664;51.302;7.744;2022-10-31T14:17:18;15.63;;;5.22;;
28431;SDS011;15664;51.302;7.744;2022-10-31T14:19:59;13.10;;;5.00;;
28431;SDS011;15664;51.302;7.744;2022-10-31T14:22:47;14.55;;;5.20;;
28431;SDS011;15664;51.302;7.744;2022-10-31T14:27:56;14.47;;;4.87;;
28431;SDS011;15664;51.302;7.744;2022-10-31T14:30:23;18.70;;;5.55;;
28431;SDS011;15664;51.302;7.744;2022-10-31T14:32:54;15.93;;;5.28;;
28431;SDS011;15664;51.302;7.744;2022-10-31T14:35:23;14.63;;;5.25;;
28431;SDS011;15664;51.302;7.744;2022-10-31T14:47:12;15.98;;;5.15;;
28431;SDS011;15664;51.302;7.744;2022-10-31T14:52:51;17.08;;;5.30;;
28431;SDS011;15664;51.302;7.744;2022-10-31T14:55:20;12.90;;;4.97;;
28431;SDS011;15664;51.302;7.744;2022-10-31T14:57:50;20.55;;;5.57;;
28431;SDS011;15664;51.302;7.744;2022-10-31T15:00:20;10.60;;;4.97;;
28431;SDS011;15664;51.302;7.744;2022-10-31T15:05:50;13.68;;;4.35;;
28431;SDS011;15664;51.302;7.744;2022-10-31T15:11:18;14.70;;;4.50;;
28431;SDS011;15664;51.302;7.744;2022-10-31T15:13:50;12.00;;;4.20;;
28431;SDS011;15664;51.302;7.744;2022-10-31T15:16:18;12.30;;;4.30;;
28431;SDS011;15664;51.302;7.744;2022-10-31T15:18:59;14.05;;;4.28;;
28431;SDS011;15664;51.302;7.744;2022-10-31T15:21:28;9.33;;;4.13;;
28431;SDS011;15664;51.302;7.744;2022-10-31T15:23:55;12.25;;;4.60;;
28431;SDS011;15664;51.302;7.744;2022-10-31T15:26:26;14.50;;;4.00;;
28431;SDS011;15664;51.302;7.744;2022-10-31T15:28:57;12.45;;;4.00;;
28431;SDS011;15664;51.302;7.744;2022-10-31T15:31:25;9.73;;;3.65;;
28431;SDS011;15664;51.302;7.744;2022-10-31T15:33:50;10.60;;;3.80;;
28431;SDS011;15664;51.302;7.744;2022-10-31T15:36:19;11.52;;;4.50;;
28431;SDS011;15664;51.302;7.744;2022-10-31T15:38:46;12.43;;;4.32;;
28431;SDS011;15664;51.302;7.744;2022-10-31T15:41:20;19.08;;;5.88;;
28431;SDS011;15664;51.302;7.744;2022-10-31T15:43:51;11.97;;;5.13;;
28431;SDS011;15664;51.302;7.744;2022-10-31T15:46:17;13.98;;;3.92;;
28431;SDS011;15664;51.302;7.744;2022-10-31T15:48:45;10.53;;;3.73;;
28431;SDS011;15664;51.302;7.744;2022-10-31T15:51:12;8.85;;;3.42;;
28431;SDS011;15664;51.302;7.744;2022-10-31T15:53:48;10.33;;;3.70;;
28431;SDS011;15664;51.302;7.744;2022-10-31T15:56:21;13.27;;;3.17;;
28431;SDS011;15664;51.302;7.744;2022-10-31T15:58:49;18.55;;;3.80;;
28431;SDS011;15664;51.302;7.744;2022-10-31T16:01:23;12.80;;;3.58;;
28431;SDS011;15664;51.302;7.744;2022-10-31T16:06:37;11.90;;;4.57;;
28431;SDS011;15664;51.302;7.744;2022-10-31T16:09:03;9.73;;;3.47;;
28431;SDS011;15664;51.302;7.744;2022-10-31T16:11:43;11.32;;;4.53;;
28431;SDS011;15664;51.302;7.744;2022-10-31T16:16:40;12.17;;;3.33;;
28431;SDS011;15664;51.302;7.744;2022-10-31T16:19:12;12.57;;;3.75;;
28431;SDS011;15664;51.302;7.744;2022-10-31T16:21:42;14.80;;;4.40;;
28431;SDS011;15664;51.302;7.744;2022-10-31T16:24:15;11.65;;;3.25;;
28431;SDS011;15664;51.302;7.744;2022-10-31T16:27:04;11.40;;;3.83;;
28431;SDS011;15664;51.302;7.744;2022-10-31T16:32:23;11.30;;;4.10;;
28431;SDS011;15664;51.302;7.744;2022-10-31T16:37:40;14.93;;;4.07;;
28431;SDS011;15664;51.302;7.744;2022-10-31T16:40:05;12.82;;;3.70;;
28431;SDS011;15664;51.302;7.744;2022-10-31T16:42:31;11.43;;;4.10;;
28431;SDS011;15664;51.302;7.744;2022-10-31T16:44:57;13.90;;;4.13;;
28431;SDS011;15664;51.302;7.744;2022-10-31T16:47:23;13.75;;;3.55;;
28431;SDS011;15664;51.302;7.744;2022-10-31T16:49:49;11.30;;;3.60;;
28431;SDS011;15664;51.302;7.744;2022-10-31T16:52:15;16.80;;;3.60;;
28431;SDS011;15664;51.302;7.744;2022-10-31T16:54:41;11.38;;;3.78;;
28431;SDS011;15664;51.302;7.744;2022-10-31T16:57:06;17.03;;;3.73;;
28431;SDS011;15664;51.302;7.744;2022-10-31T16:59:39;9.02;;;3.35;;
28431;SDS011;15664;51.302;7.744;2022-10-31T17:02:05;10.50;;;3.58;;
28431;SDS011;15664;51.302;7.744;2022-10-31T17:04:38;10.43;;;3.50;;
28431;SDS011;15664;51.302;7.744;2022-10-31T17:07:04;10.35;;;3.15;;
28431;SDS011;15664;51.302;7.744;2022-10-31T17:09:29;10.67;;;3.30;;
28431;SDS011;15664;51.302;7.744;2022-10-31T17:11:54;8.50;;;2.77;;
28431;SDS011;15664;51.302;7.744;2022-10-31T17:14:20;9.77;;;3.20;;
28431;SDS011;15664;51.302;7.744;2022-10-31T17:16:46;10.82;;;3.63;;
28431;SDS011;15664;51.302;7.744;2022-10-31T17:19:11;11.57;;;3.30;;
28431;SDS011;15664;51.302;7.744;2022-10-31T17:21:37;12.67;;;3.17;;
28431;SDS011;15664;51.302;7.744;2022-10-31T17:24:03;17.73;;;3.22;;
28431;SDS011;15664;51.302;7.744;2022-10-31T17:26:29;11.63;;;3.38;;
28431;SDS011;15664;51.302;7.744;2022-10-31T17:28:54;10.20;;;3.63;;
28431;SDS011;15664;51.302;7.744;2022-10-31T17:31:31;10.20;;;3.55;;
28431;SDS011;15664;51.302;7.744;2022-10-31T17:33:58;10.83;;;3.00;;